createdAt,value
2019-04-26T00:02:52.580Z,10.50
2019-04-26T00:05:33.662Z,10.50
2019-04-26T00:07:52.085Z,10.40
2019-04-26T00:10:34.325Z,10.40
2019-04-26T00:13:24.896Z,10.50
2019-04-26T00:16:07.468Z,10.50
2019-04-26T00:18:36.086Z,10.40
2019-04-26T00:21:04.752Z,10.40
2019-04-26T00:23:33.347Z,10.40
2019-04-26T00:26:02.038Z,10.40
2019-04-26T00:28:30.653Z,10.40
2019-04-26T00:30:59.458Z,10.40
2019-04-26T00:33:28.121Z,10.30
2019-04-26T00:35:56.762Z,10.30
2019-04-26T00:38:25.381Z,10.30
2019-04-26T00:40:54.290Z,10.20
2019-04-26T00:43:22.929Z,10.20
2019-04-26T00:45:51.822Z,10.30
2019-04-26T00:48:21.086Z,10.30
2019-04-26T00:50:49.828Z,10.20
2019-04-26T00:53:19.538Z,10.20
2019-04-26T00:55:48.509Z,10.20
2019-04-26T00:58:18.454Z,10.30
2019-04-26T01:00:47.765Z,10.20
2019-04-26T01:03:16.668Z,10.20
2019-04-26T01:05:45.398Z,10.20
2019-04-26T01:08:33.307Z,10.30
2019-04-26T01:11:01.937Z,10.40
2019-04-26T01:13:30.592Z,10.30
2019-04-26T01:15:59.184Z,10.30
2019-04-26T01:18:27.841Z,10.30
2019-04-26T01:20:56.432Z,10.10
2019-04-26T01:23:27.364Z,10.10
2019-04-26T01:26:04.276Z,10.10
2019-04-26T01:28:42.393Z,10.10
2019-04-26T01:31:10.998Z,10.10
2019-04-26T01:33:39.608Z,10.10
2019-04-26T01:36:13.356Z,10.10
2019-04-26T01:38:38.586Z,10.10
2019-04-26T01:41:11.211Z,10.10
2019-04-26T01:44:04.972Z,10.10
2019-04-26T01:46:37.830Z,10.10
2019-04-26T01:49:07.459Z,10.00
2019-04-26T01:51:40.673Z,10.00
2019-04-26T01:54:09.936Z,10.00
2019-04-26T01:56:38.533Z,10.10
2019-04-26T01:59:07.845Z,10.10
2019-04-26T02:01:45.944Z,10.10
2019-04-26T02:04:14.556Z,10.10
2019-04-26T02:06:43.202Z,10.10
2019-04-26T02:09:11.872Z,10.10
2019-04-26T02:11:40.511Z,10.10
2019-04-26T02:14:09.132Z,10.10
2019-04-26T02:16:37.818Z,10.10
2019-04-26T02:19:06.407Z,10.10
2019-04-26T02:21:50.376Z,10.20
2019-04-26T02:24:38.054Z,10.10
2019-04-26T02:27:14.260Z,10.00
2019-04-26T02:29:42.893Z,10.00
2019-04-26T02:32:13.963Z,9.90
2019-04-26T02:34:42.598Z,9.90
2019-04-26T02:37:11.520Z,9.90
2019-04-26T02:39:40.608Z,9.90
2019-04-26T02:42:30.178Z,9.90
2019-04-26T02:45:22.575Z,9.90
2019-04-26T02:47:56.789Z,9.90
2019-04-26T02:50:31.142Z,9.90
2019-04-26T02:53:07.005Z,9.90
2019-04-26T02:56:04.037Z,10.00
2019-04-26T02:58:39.149Z,10.00
2019-04-26T03:01:07.826Z,10.10
2019-04-26T03:03:38.295Z,10.00
2019-04-26T03:06:06.802Z,10.00
2019-04-26T03:08:37.130Z,10.00
2019-04-26T03:11:10.927Z,10.00
2019-04-26T03:13:45.837Z,10.00
2019-04-26T03:16:27.583Z,10.00
2019-04-26T03:19:14.892Z,10.00
2019-04-26T03:22:11.305Z,9.90
2019-04-26T03:24:56.245Z,9.90
2019-04-26T03:28:02.832Z,9.90
2019-04-26T03:30:42.227Z,9.80
2019-04-26T03:33:30.212Z,9.80
2019-04-26T03:36:25.358Z,9.80
2019-04-26T03:39:08.854Z,9.80
2019-04-26T03:42:11.253Z,9.70
2019-04-26T03:44:51.352Z,9.70
2019-04-26T03:47:22.917Z,9.70
2019-04-26T03:50:03.117Z,9.60
2019-04-26T03:52:54.117Z,9.60
2019-04-26T03:55:58.545Z,9.60
2019-04-26T03:58:54.951Z,9.60
2019-04-26T04:01:24.546Z,9.60
2019-04-26T04:04:30.188Z,9.60
2019-04-26T04:07:04.594Z,9.60
2019-04-26T04:09:50.050Z,9.70
2019-04-26T04:12:27.417Z,9.70
2019-04-26T04:15:05.954Z,9.70
2019-04-26T04:17:50.198Z,9.70
2019-04-26T04:20:45.076Z,9.70
2019-04-26T04:23:33.049Z,9.70
2019-04-26T04:26:01.755Z,9.80
2019-04-26T04:29:20.093Z,9.70
2019-04-26T04:31:52.668Z,9.80
2019-04-26T04:34:31.090Z,9.80
2019-04-26T04:37:01.120Z,9.80
2019-04-26T04:40:03.513Z,9.80
2019-04-26T04:42:48.602Z,9.80
2019-04-26T04:46:09.007Z,9.90
2019-04-26T04:49:23.935Z,9.90
2019-04-26T04:52:21.498Z,10.00
2019-04-26T04:55:05.188Z,9.90
2019-04-26T04:57:57.089Z,9.90
2019-04-26T05:01:14.686Z,9.90
2019-04-26T05:03:55.777Z,10.00
2019-04-26T05:07:05.588Z,10.00
2019-04-26T05:09:37.494Z,10.00
2019-04-26T05:12:23.528Z,10.00
2019-04-26T05:15:44.987Z,10.00
2019-04-26T05:18:25.961Z,10.00
2019-04-26T05:21:28.950Z,10.00
2019-04-26T05:24:16.282Z,10.00
2019-04-26T05:27:30.521Z,10.00
2019-04-26T05:30:30.435Z,10.00
2019-04-26T05:33:20.816Z,10.00
2019-04-26T05:36:13.465Z,10.00
2019-04-26T05:39:01.906Z,10.00
2019-04-26T05:41:56.168Z,9.90
2019-04-26T05:45:06.887Z,9.90
2019-04-26T05:47:44.469Z,10.00
2019-04-26T05:51:09.587Z,9.90
2019-04-26T05:54:09.032Z,10.00
2019-04-26T05:57:32.583Z,10.00
2019-04-26T06:00:39.145Z,10.00
2019-04-26T06:04:08.615Z,10.10
2019-04-26T06:06:42.819Z,10.10
2019-04-26T06:09:44.438Z,10.20
2019-04-26T06:12:35.921Z,10.20
2019-04-26T06:15:26.455Z,10.30
2019-04-26T06:18:20.789Z,10.40
2019-04-26T06:21:14.945Z,10.50
2019-04-26T06:23:57.948Z,10.50
2019-04-26T06:27:14.279Z,10.40
2019-04-26T06:29:53.537Z,10.40
2019-04-26T06:32:28.690Z,10.50
2019-04-26T06:35:20.208Z,10.50
2019-04-26T06:38:26.638Z,10.60
2019-04-26T06:42:05.072Z,10.70
2019-04-26T06:44:47.484Z,10.80
2019-04-26T06:47:27.752Z,11.00
2019-04-26T06:50:23.336Z,11.10
2019-04-26T06:53:01.509Z,11.30
2019-04-26T06:55:45.963Z,11.40
2019-04-26T06:58:34.625Z,11.40
2019-04-26T07:01:16.013Z,11.40
2019-04-26T07:04:13.487Z,11.50
2019-04-26T07:06:50.424Z,11.50
2019-04-26T07:09:19.021Z,11.60
2019-04-26T07:12:34.222Z,11.70
2019-04-26T07:15:30.493Z,11.80
2019-04-26T07:18:31.808Z,11.90
2019-04-26T07:21:33.238Z,12.10
2019-04-26T07:24:34.560Z,12.00
2019-04-26T07:27:17.247Z,12.00
2019-04-26T07:29:58.432Z,11.80
2019-04-26T07:32:41.825Z,11.80
2019-04-26T07:35:34.148Z,11.80
2019-04-26T07:38:54.829Z,11.80
2019-04-26T07:42:01.590Z,12.00
2019-04-26T07:45:03.663Z,12.00
2019-04-26T07:48:14.660Z,11.90
2019-04-26T07:51:26.954Z,11.90
2019-04-26T07:54:39.452Z,11.90
2019-04-26T07:57:45.797Z,12.00
2019-04-26T08:00:20.272Z,12.10
2019-04-26T08:03:20.751Z,12.30
2019-04-26T08:06:00.576Z,12.50
2019-04-26T08:08:33.198Z,12.60
2019-04-26T08:11:06.390Z,12.70
2019-04-26T08:13:36.302Z,12.60
2019-04-26T08:16:39.903Z,12.60
2019-04-26T08:19:14.720Z,12.50
2019-04-26T08:21:47.889Z,12.70
2019-04-26T08:24:24.182Z,12.80
2019-04-26T08:27:13.566Z,12.90
2019-04-26T08:29:38.869Z,13.00
2019-04-26T08:32:10.099Z,13.20
2019-04-26T08:34:40.133Z,13.40
2019-04-26T08:37:18.959Z,13.60
2019-04-26T08:39:51.684Z,13.70
2019-04-26T08:42:22.509Z,13.60
2019-04-26T08:45:21.825Z,13.50
2019-04-26T08:48:15.718Z,13.60
2019-04-26T08:50:47.098Z,13.60
2019-04-26T08:53:16.180Z,13.80
2019-04-26T08:55:45.035Z,13.90
2019-04-26T08:58:13.630Z,13.70
2019-04-26T09:00:49.565Z,13.80
2019-04-26T09:03:36.181Z,14.00
2019-04-26T09:06:33.185Z,14.10
2019-04-26T09:09:01.887Z,14.30
2019-04-26T09:11:33.837Z,14.40
2019-04-26T09:14:01.078Z,14.60
2019-04-26T09:16:29.685Z,14.60
2019-04-26T09:18:59.673Z,14.80
2019-04-26T09:21:39.951Z,14.90
2019-04-26T09:24:33.429Z,15.00
2019-04-26T09:27:12.969Z,14.90
2019-04-26T09:30:18.785Z,14.80
2019-04-26T09:33:09.680Z,14.80
2019-04-26T09:35:38.527Z,14.80
2019-04-26T09:38:07.130Z,14.90
2019-04-26T09:40:36.129Z,15.00
2019-04-26T09:43:17.118Z,15.00
2019-04-26T09:46:02.056Z,14.70
2019-04-26T09:48:36.729Z,14.70
2019-04-26T09:51:05.974Z,14.90
2019-04-26T09:53:34.556Z,15.00
2019-04-26T09:56:03.185Z,15.10
2019-04-26T09:58:32.278Z,15.00
2019-04-26T10:01:02.860Z,15.10
2019-04-26T10:03:34.182Z,15.20
2019-04-26T10:06:01.818Z,15.20
2019-04-26T10:08:30.420Z,15.30
2019-04-26T10:10:59.109Z,15.30
2019-04-26T10:13:35.263Z,15.50
2019-04-26T10:16:24.593Z,15.50
2019-04-26T10:18:58.319Z,15.50
2019-04-26T10:21:27.437Z,15.70
2019-04-26T10:23:56.319Z,16.00
2019-04-26T10:26:28.434Z,16.20
2019-04-26T10:29:14.552Z,16.00
2019-04-26T10:31:43.176Z,15.80
2019-04-26T10:34:12.936Z,15.50
2019-04-26T10:36:41.650Z,15.20
2019-04-26T10:39:12.140Z,15.10
2019-04-26T10:41:40.772Z,15.10
2019-04-26T10:44:09.347Z,15.00
2019-04-26T10:46:37.945Z,15.10
2019-04-26T10:49:41.748Z,15.20
2019-04-26T10:52:15.804Z,15.10
2019-04-26T10:54:46.909Z,15.00
2019-04-26T10:57:19.877Z,15.00
2019-04-26T10:59:56.596Z,14.90
2019-04-26T11:02:25.260Z,15.10
2019-04-26T11:04:53.853Z,15.10
2019-04-26T11:07:22.452Z,15.30
2019-04-26T11:09:51.058Z,15.40
2019-04-26T11:12:19.915Z,15.30
2019-04-26T11:14:48.607Z,15.00
2019-04-26T11:17:17.797Z,15.00
2019-04-26T11:19:46.641Z,15.30
2019-04-26T11:22:15.257Z,15.30
2019-04-26T11:24:44.118Z,15.40
2019-04-26T11:27:12.758Z,15.50
2019-04-26T11:29:53.098Z,15.50
2019-04-26T11:32:11.996Z,15.50
2019-04-26T11:34:42.863Z,15.60
2019-04-26T11:37:13.444Z,15.90
2019-04-26T11:39:42.155Z,15.80
2019-04-26T11:42:11.742Z,15.90
2019-04-26T11:45:06.423Z,15.90
2019-04-26T11:47:30.918Z,15.80
2019-04-26T11:49:59.667Z,15.80
2019-04-26T11:52:28.352Z,15.70
2019-04-26T11:54:58.227Z,15.90
2019-04-26T11:57:26.906Z,15.90
2019-04-26T11:59:55.551Z,15.90
2019-04-26T12:02:24.259Z,15.90
2019-04-26T12:05:09.566Z,16.10
2019-04-26T12:07:43.485Z,16.20
2019-04-26T12:10:12.324Z,16.40
2019-04-26T12:12:43.159Z,16.20
2019-04-26T12:15:11.681Z,16.30
2019-04-26T12:17:40.402Z,16.20
2019-04-26T12:20:09.085Z,16.00
2019-04-26T12:22:39.294Z,16.50
2019-04-26T12:25:08.504Z,16.60
2019-04-26T12:27:56.557Z,16.60
2019-04-26T12:30:26.914Z,16.50
2019-04-26T12:32:55.734Z,16.50
2019-04-26T12:35:24.926Z,16.60
2019-04-26T12:37:54.696Z,16.50
2019-04-26T12:40:25.148Z,16.60
2019-04-26T12:42:53.935Z,16.70
2019-04-26T12:45:41.690Z,16.60
2019-04-26T12:48:15.671Z,16.60
2019-04-26T12:50:43.335Z,16.70
2019-04-26T12:53:12.563Z,16.80
2019-04-26T12:55:41.222Z,16.80
2019-04-26T12:58:10.997Z,16.80
2019-04-26T13:00:52.913Z,16.80
2019-04-26T13:03:20.031Z,16.40
2019-04-26T13:05:41.065Z,16.50
2019-04-26T13:08:13.158Z,16.40
2019-04-26T13:11:02.134Z,16.60
2019-04-26T13:13:52.730Z,16.40
2019-04-26T13:16:43.433Z,16.40
2019-04-26T13:19:12.044Z,16.50
2019-04-26T13:21:41.543Z,16.50
2019-04-26T13:24:10.192Z,16.70
2019-04-26T13:26:38.855Z,16.60
2019-04-26T13:29:07.464Z,16.60
2019-04-26T13:31:36.075Z,16.60
2019-04-26T13:34:04.748Z,16.60
2019-04-26T13:36:33.428Z,16.60
2019-04-26T13:39:02.115Z,16.70
2019-04-26T13:41:30.753Z,16.80
2019-04-26T13:44:00.927Z,17.00
2019-04-26T13:46:47.781Z,16.80
2019-04-26T13:49:35.444Z,16.80
2019-04-26T13:52:04.131Z,17.00
2019-04-26T13:54:32.865Z,17.00
2019-04-26T13:57:01.594Z,16.90
2019-04-26T13:59:31.660Z,16.80
2019-04-26T14:02:10.803Z,16.60
2019-04-26T14:04:31.074Z,16.60
2019-04-26T14:06:59.686Z,16.70
2019-04-26T14:09:28.274Z,16.80
2019-04-26T14:11:58.202Z,16.70
2019-04-26T14:14:30.221Z,16.70
2019-04-26T14:16:58.733Z,16.90
2019-04-26T14:19:27.386Z,16.90
2019-04-26T14:21:56.073Z,16.90
2019-04-26T14:24:36.604Z,16.90
2019-04-26T14:27:10.360Z,16.80
2019-04-26T14:29:39.912Z,16.80
2019-04-26T14:32:08.544Z,16.90
2019-04-26T14:34:40.354Z,17.10
2019-04-26T14:37:11.165Z,17.20
2019-04-26T14:39:49.606Z,17.20
2019-04-26T14:42:08.462Z,17.20
2019-04-26T14:44:48.899Z,17.30
2019-04-26T14:47:14.767Z,17.50
2019-04-26T14:49:39.239Z,17.70
2019-04-26T14:52:08.292Z,17.80
2019-04-26T14:54:36.890Z,18.00
2019-04-26T14:57:11.362Z,18.10
2019-04-26T14:59:57.049Z,17.90
2019-04-26T15:02:41.630Z,17.80
2019-04-26T15:05:16.856Z,17.70
2019-04-26T15:07:50.773Z,17.60
2019-04-26T15:10:16.368Z,17.30
2019-04-26T15:12:48.218Z,17.40
2019-04-26T15:15:15.298Z,17.60
2019-04-26T15:17:43.881Z,17.70
2019-04-26T15:20:12.671Z,17.90
2019-04-26T15:22:42.902Z,18.20
2019-04-26T15:25:12.706Z,18.20
2019-04-26T15:27:42.113Z,18.30
2019-04-26T15:30:13.301Z,18.30
2019-04-26T15:32:42.683Z,18.10
2019-04-26T15:35:15.700Z,17.80
2019-04-26T15:37:42.226Z,17.60
2019-04-26T15:40:48.472Z,17.40
2019-04-26T15:43:36.210Z,17.30
2019-04-26T15:46:14.500Z,17.10
2019-04-26T15:49:05.268Z,16.90
2019-04-26T15:51:34.435Z,17.10
2019-04-26T15:54:03.153Z,17.10
2019-04-26T15:56:32.480Z,17.10
2019-04-26T15:59:02.489Z,17.10
2019-04-26T16:01:32.539Z,17.40
2019-04-26T16:04:06.070Z,17.80
2019-04-26T16:06:32.304Z,17.80
2019-04-26T16:09:02.324Z,17.90
2019-04-26T16:11:31.203Z,18.20
2019-04-26T16:14:00.105Z,18.10
2019-04-26T16:16:30.228Z,18.50
2019-04-26T16:18:59.100Z,18.80
2019-04-26T16:21:27.809Z,19.50
2019-04-26T16:23:59.556Z,19.80
2019-04-26T16:26:28.233Z,19.70
2019-04-26T16:29:18.473Z,19.30
2019-04-26T16:32:04.176Z,18.60
2019-04-26T16:34:32.897Z,18.10
2019-04-26T16:37:03.059Z,18.30
2019-04-26T16:39:38.300Z,18.50
2019-04-26T16:42:05.019Z,19.00
2019-04-26T16:44:33.484Z,19.60
2019-04-26T16:47:05.694Z,20.00
2019-04-26T16:49:35.041Z,19.60
2019-04-26T16:52:07.089Z,18.90
2019-04-26T16:54:35.596Z,18.60
2019-04-26T16:57:11.165Z,18.40
2019-04-26T16:59:36.205Z,18.50
2019-04-26T17:02:04.953Z,18.50
2019-04-26T17:04:36.184Z,18.30
2019-04-26T17:07:05.021Z,18.30
2019-04-26T17:09:54.274Z,18.50
2019-04-26T17:12:04.551Z,18.40
2019-04-26T17:14:34.200Z,18.40
2019-04-26T17:17:03.279Z,18.40
2019-04-26T17:19:35.833Z,18.20
2019-04-26T17:22:14.008Z,18.10
2019-04-26T17:24:58.618Z,18.00
2019-04-26T17:27:27.361Z,17.90
2019-04-26T17:29:55.977Z,17.80
2019-04-26T17:32:47.598Z,17.60
2019-04-26T17:35:14.257Z,17.50
2019-04-26T17:37:42.914Z,17.50
2019-04-26T17:40:11.496Z,17.50
2019-04-26T17:42:40.817Z,17.30
2019-04-26T17:45:10.905Z,17.20
2019-04-26T17:47:41.846Z,17.00
2019-04-26T17:50:10.992Z,16.90
2019-04-26T17:52:40.908Z,16.80
2019-04-26T17:55:12.038Z,16.60
2019-04-26T17:57:43.570Z,16.50
2019-04-26T18:00:13.813Z,16.40
2019-04-26T18:02:46.281Z,16.30
2019-04-26T18:05:13.032Z,16.20
2019-04-26T18:07:50.296Z,16.20
2019-04-26T18:10:12.207Z,16.20
2019-04-26T18:12:42.085Z,16.20
2019-04-26T18:15:16.345Z,16.10
2019-04-26T18:17:59.934Z,16.00
2019-04-26T18:20:47.901Z,16.00
2019-04-26T18:23:18.576Z,15.80
2019-04-26T18:25:48.564Z,15.70
2019-04-26T18:28:18.950Z,15.60
2019-04-26T18:30:47.842Z,15.50
2019-04-26T18:33:17.625Z,15.50
2019-04-26T18:35:49.137Z,15.30
2019-04-26T18:38:36.711Z,15.20
2019-04-26T18:41:05.560Z,15.10
2019-04-26T18:43:34.167Z,14.90
2019-04-26T18:46:07.918Z,14.90
2019-04-26T18:48:40.689Z,14.80
2019-04-26T18:51:07.460Z,14.70
2019-04-26T18:54:02.767Z,14.60
2019-04-26T18:56:39.630Z,14.50
2019-04-26T18:59:07.371Z,14.40
2019-04-26T19:01:40.858Z,14.30
2019-04-26T19:04:09.999Z,14.30
2019-04-26T19:06:38.036Z,14.20
2019-04-26T19:09:06.965Z,14.10
2019-04-26T19:11:36.064Z,14.10
2019-04-26T19:14:23.326Z,14.00
2019-04-26T19:17:01.885Z,14.00
2019-04-26T19:19:52.414Z,13.90
2019-04-26T19:22:22.547Z,13.80
2019-04-26T19:24:54.130Z,13.70
2019-04-26T19:27:26.693Z,13.70
2019-04-26T19:29:52.077Z,13.70
2019-04-26T19:32:21.843Z,13.70
2019-04-26T19:34:52.504Z,13.70
2019-04-26T19:37:23.008Z,13.70
2019-04-26T19:39:51.513Z,13.70
2019-04-26T19:42:20.112Z,13.70
2019-04-26T19:45:31.504Z,13.70
2019-04-26T19:48:06.057Z,13.70
2019-04-26T19:50:48.734Z,13.60
2019-04-26T19:53:40.212Z,13.50
2019-04-26T19:56:31.733Z,13.50
2019-04-26T19:59:01.310Z,13.40
2019-04-26T20:01:30.270Z,13.40
2019-04-26T20:03:58.929Z,13.40
2019-04-26T20:06:27.604Z,13.40
2019-04-26T20:08:56.316Z,13.50
2019-04-26T20:11:24.938Z,13.50
2019-04-26T20:13:55.206Z,13.50
2019-04-26T20:16:25.798Z,13.40
2019-04-26T20:18:54.156Z,13.50
2019-04-26T20:21:22.716Z,13.50
2019-04-26T20:23:54.319Z,13.40
2019-04-26T20:26:22.572Z,13.40
2019-04-26T20:29:11.802Z,13.30
2019-04-26T20:32:16.501Z,13.20
2019-04-26T20:34:51.110Z,13.20
2019-04-26T20:37:23.124Z,13.20
2019-04-26T20:39:55.794Z,13.20
2019-04-26T20:42:22.266Z,13.20
2019-04-26T20:44:53.085Z,13.30
2019-04-26T20:47:21.718Z,13.20
2019-04-26T20:50:00.798Z,13.20
2019-04-26T20:52:24.807Z,13.20
2019-04-26T20:54:54.024Z,13.10
2019-04-26T20:57:42.815Z,13.10
2019-04-26T21:00:12.631Z,13.10
2019-04-26T21:02:41.801Z,13.10
2019-04-26T21:05:14.357Z,13.00
2019-04-26T21:07:41.950Z,12.90
2019-04-26T21:10:14.620Z,12.90
2019-04-26T21:12:41.805Z,12.90
2019-04-26T21:15:11.623Z,12.90
2019-04-26T21:17:41.492Z,12.80
2019-04-26T21:20:10.344Z,12.70
2019-04-26T21:22:38.949Z,12.50
2019-04-26T21:25:13.238Z,12.50
2019-04-26T21:27:54.168Z,12.40
2019-04-26T21:30:48.837Z,12.30
2019-04-26T21:33:24.044Z,12.20
2019-04-26T21:36:16.669Z,12.20
2019-04-26T21:39:05.774Z,12.10
2019-04-26T21:41:33.747Z,12.00
2019-04-26T21:44:07.542Z,12.00
2019-04-26T21:46:35.954Z,12.00
2019-04-26T21:49:04.526Z,11.90
2019-04-26T21:51:34.057Z,11.90
2019-04-26T21:54:03.772Z,11.90
2019-04-26T21:56:33.772Z,11.90
2019-04-26T21:59:03.658Z,11.90
2019-04-26T22:01:33.073Z,11.80
2019-04-26T22:04:02.998Z,11.80
2019-04-26T22:06:33.328Z,11.70
2019-04-26T22:09:10.379Z,11.70
2019-04-26T22:11:40.149Z,11.60
2019-04-26T22:14:20.255Z,11.60
2019-04-26T22:16:53.026Z,11.60
2019-04-26T22:19:36.423Z,11.50
2019-04-26T22:22:15.255Z,11.50
2019-04-26T22:24:44.367Z,11.50
2019-04-26T22:27:13.348Z,11.50
2019-04-26T22:29:43.659Z,11.40
2019-04-26T22:32:17.755Z,11.40
2019-04-26T22:34:46.147Z,11.40
2019-04-26T22:37:14.791Z,11.40
2019-04-26T22:39:44.406Z,11.30
2019-04-26T22:42:13.922Z,11.30
2019-04-26T22:44:54.617Z,11.30
2019-04-26T22:47:28.737Z,11.20
2019-04-26T22:49:57.370Z,11.20
2019-04-26T22:52:25.986Z,11.20
2019-04-26T22:54:54.664Z,11.10
2019-04-26T22:57:23.372Z,11.10
2019-04-26T22:59:53.563Z,11.00
2019-04-26T23:02:27.479Z,11.00
2019-04-26T23:05:13.920Z,11.00
2019-04-26T23:07:42.629Z,11.00
2019-04-26T23:10:13.301Z,10.90
2019-04-26T23:13:04.390Z,10.90
2019-04-26T23:15:44.436Z,10.90
2019-04-26T23:18:20.300Z,10.90
2019-04-26T23:21:01.108Z,10.90
2019-04-26T23:23:29.773Z,10.90
2019-04-26T23:25:58.352Z,10.80
2019-04-26T23:28:27.744Z,10.80
2019-04-26T23:30:57.336Z,10.80
2019-04-26T23:33:25.949Z,10.70
2019-04-26T23:35:54.813Z,10.70
2019-04-26T23:38:23.546Z,10.80
2019-04-26T23:40:52.188Z,10.70
2019-04-26T23:43:24.009Z,10.70
2019-04-26T23:45:51.069Z,10.70
2019-04-26T23:48:19.647Z,10.70
2019-04-26T23:50:49.937Z,10.70
2019-04-26T23:53:20.145Z,10.60
2019-04-26T23:55:49.038Z,10.60
2019-04-26T23:58:17.652Z,10.50
